createdAt,value
2024-05-09T00:00:59.950Z,10.07
2024-05-09T00:03:29.887Z,9.27
2024-05-09T00:05:59.711Z,11.27
2024-05-09T00:08:29.657Z,10.70
2024-05-09T00:11:03.884Z,11.23
2024-05-09T00:13:33.958Z,10.63
2024-05-09T00:16:03.627Z,10.13
2024-05-09T00:18:33.515Z,9.67
2024-05-09T00:21:03.438Z,12.27
2024-05-09T00:23:33.402Z,10.83
2024-05-09T00:26:05.902Z,10.00
2024-05-09T00:28:35.657Z,10.37
2024-05-09T00:31:05.841Z,13.27
2024-05-09T00:33:35.786Z,11.83
2024-05-09T00:36:05.626Z,9.73
2024-05-09T00:38:35.621Z,11.23
2024-05-09T00:41:08.095Z,12.00
2024-05-09T00:43:37.757Z,12.40
2024-05-09T00:46:08.060Z,10.57
2024-05-09T00:48:38.335Z,10.33
2024-05-09T00:51:09.203Z,11.90
2024-05-09T00:53:39.187Z,11.83
2024-05-09T00:56:14.256Z,10.50
2024-05-09T00:58:44.662Z,11.77
2024-05-09T01:01:14.436Z,12.70
2024-05-09T01:03:45.944Z,11.63
2024-05-09T01:06:16.345Z,11.80
2024-05-09T01:08:46.236Z,11.27
2024-05-09T01:11:20.427Z,11.73
2024-05-09T01:13:50.175Z,12.80
2024-05-09T01:16:19.958Z,11.63
2024-05-09T01:18:49.732Z,8.53
2024-05-09T01:21:19.490Z,10.60
2024-05-09T01:23:51.904Z,11.30
2024-05-09T01:26:21.636Z,11.23
2024-05-09T01:28:51.476Z,13.67
2024-05-09T01:31:21.375Z,12.07
2024-05-09T01:33:51.259Z,10.20
2024-05-09T01:36:21.683Z,11.87
2024-05-09T01:38:54.058Z,11.23
2024-05-09T01:41:23.953Z,10.73
2024-05-09T01:43:53.886Z,9.80
2024-05-09T01:46:23.609Z,10.87
2024-05-09T01:48:53.364Z,11.83
2024-05-09T01:51:23.096Z,13.10
2024-05-09T01:53:57.519Z,13.77
2024-05-09T01:56:27.268Z,11.93
2024-05-09T01:58:57.043Z,10.30
2024-05-09T02:01:26.907Z,10.93
2024-05-09T02:03:56.860Z,11.33
2024-05-09T02:06:26.632Z,13.17
2024-05-09T02:08:59.141Z,11.63
2024-05-09T02:11:28.729Z,11.00
2024-05-09T02:13:58.578Z,10.20
2024-05-09T02:16:28.311Z,13.10
2024-05-09T02:18:58.125Z,15.33
2024-05-09T02:21:27.829Z,17.07
2024-05-09T02:24:00.256Z,17.30
2024-05-09T02:26:30.022Z,16.57
2024-05-09T02:28:59.761Z,14.33
2024-05-09T02:31:29.494Z,12.00
2024-05-09T02:33:56.898Z,13.67
2024-05-09T02:36:26.787Z,14.13
2024-05-09T02:38:56.442Z,12.47
2024-05-09T02:41:27.161Z,13.77
2024-05-09T02:43:54.330Z,12.60
2024-05-09T02:46:24.057Z,13.50
2024-05-09T02:48:51.272Z,13.33
2024-05-09T02:51:21.273Z,13.60
2024-05-09T02:53:48.306Z,12.97
2024-05-09T02:56:20.662Z,13.60
2024-05-09T02:58:47.777Z,13.23
2024-05-09T03:01:19.958Z,12.40
2024-05-09T03:03:48.523Z,9.80
2024-05-09T03:06:18.264Z,8.90
2024-05-09T03:08:45.883Z,8.60
2024-05-09T03:11:26.618Z,8.57
2024-05-09T03:13:55.416Z,9.50
2024-05-09T03:16:25.127Z,9.93
2024-05-09T03:18:52.647Z,8.70
2024-05-09T03:21:24.483Z,9.67
2024-05-09T03:23:51.555Z,9.47
2024-05-09T03:26:21.413Z,9.47
2024-05-09T03:28:51.142Z,6.77
2024-05-09T03:31:21.392Z,7.63
2024-05-09T03:33:48.733Z,7.77
2024-05-09T03:36:18.546Z,8.17
2024-05-09T03:38:50.412Z,7.73
2024-05-09T03:41:22.047Z,8.03
2024-05-09T03:43:54.482Z,8.07
2024-05-09T03:46:24.191Z,8.07
2024-05-09T03:48:51.268Z,8.00
2024-05-09T03:51:21.105Z,8.53
2024-05-09T03:53:48.249Z,7.07
2024-05-09T03:56:17.891Z,7.67
2024-05-09T03:58:45.010Z,8.00
2024-05-09T04:01:18.531Z,7.73
2024-05-09T04:03:45.783Z,8.53
2024-05-09T04:06:23.125Z,8.80
2024-05-09T04:08:50.267Z,8.60
2024-05-09T04:11:20.142Z,11.47
2024-05-09T04:13:47.323Z,9.83
2024-05-09T04:16:19.694Z,10.30
2024-05-09T04:18:46.863Z,8.70
2024-05-09T04:21:16.831Z,9.70
2024-05-09T04:23:43.948Z,8.43
2024-05-09T04:26:14.116Z,8.47
2024-05-09T04:28:41.245Z,9.10
2024-05-09T04:31:10.932Z,6.60
2024-05-09T04:33:40.677Z,6.67
2024-05-09T04:36:10.671Z,8.50
2024-05-09T04:38:37.968Z,8.00
2024-05-09T04:41:08.112Z,7.77
2024-05-09T04:43:35.504Z,9.50
2024-05-09T04:46:06.407Z,7.43
2024-05-09T04:48:35.969Z,8.13
2024-05-09T04:51:10.112Z,7.90
2024-05-09T04:53:37.375Z,6.17
2024-05-09T04:56:07.728Z,8.83
2024-05-09T04:58:34.931Z,7.73
2024-05-09T05:01:04.668Z,6.77
2024-05-09T05:03:31.978Z,7.50
2024-05-09T05:06:02.566Z,7.80
2024-05-09T05:08:32.716Z,7.53
2024-05-09T05:11:02.612Z,9.03
2024-05-09T05:13:31.547Z,9.10
2024-05-09T05:16:01.597Z,10.67
2024-05-09T05:18:29.351Z,9.07
2024-05-09T05:21:00.035Z,11.20
2024-05-09T05:23:27.171Z,10.13
2024-05-09T05:25:59.716Z,15.10
2024-05-09T05:28:26.875Z,11.40
2024-05-09T05:30:56.499Z,10.67
2024-05-09T05:33:24.140Z,10.77
2024-05-09T05:35:54.043Z,12.30
2024-05-09T05:38:24.861Z,10.80
2024-05-09T05:40:59.732Z,12.57
2024-05-09T05:43:27.195Z,14.90
2024-05-09T05:45:56.806Z,14.97
2024-05-09T05:48:24.070Z,14.20
2024-05-09T05:50:54.050Z,17.83
2024-05-09T05:53:21.260Z,14.67
2024-05-09T05:55:53.714Z,15.20
2024-05-09T05:58:23.506Z,14.37
2024-05-09T06:00:55.098Z,15.83
2024-05-09T06:03:22.354Z,15.30
2024-05-09T06:05:52.307Z,17.37
2024-05-09T06:08:19.587Z,18.67
2024-05-09T06:10:49.500Z,18.30
2024-05-09T06:13:16.663Z,17.37
2024-05-09T06:15:49.582Z,16.03
2024-05-09T06:18:17.239Z,16.47
2024-05-09T06:20:47.122Z,18.37
2024-05-09T06:23:14.661Z,18.33
2024-05-09T06:25:45.068Z,19.27
2024-05-09T06:28:12.161Z,18.83
2024-05-09T06:30:43.200Z,22.90
2024-05-09T06:33:15.333Z,15.67
2024-05-09T06:35:52.063Z,16.90
2024-05-09T06:38:19.374Z,22.23
2024-05-09T06:40:49.457Z,25.57
2024-05-09T06:43:19.196Z,25.27
2024-05-09T06:45:49.930Z,25.70
2024-05-09T06:48:30.866Z,25.93
2024-05-09T06:51:01.027Z,26.37
2024-05-09T06:53:28.416Z,22.53
2024-05-09T06:55:58.218Z,25.27
2024-05-09T06:58:25.256Z,23.27
2024-05-09T07:00:57.978Z,23.90
2024-05-09T07:03:28.016Z,30.23
2024-05-09T07:05:57.860Z,26.60
2024-05-09T07:08:25.122Z,25.87
2024-05-09T07:10:55.079Z,28.73
2024-05-09T07:13:22.253Z,28.40
2024-05-09T07:15:52.063Z,23.80
2024-05-09T07:18:20.400Z,25.27
2024-05-09T07:20:53.355Z,25.53
2024-05-09T07:23:20.809Z,25.03
2024-05-09T07:25:50.635Z,22.30
2024-05-09T07:28:19.417Z,25.33
2024-05-09T07:30:51.038Z,24.97
2024-05-09T07:33:21.529Z,25.23
2024-05-09T07:35:55.421Z,22.37
2024-05-09T07:38:22.814Z,24.07
2024-05-09T07:40:52.815Z,27.03
2024-05-09T07:43:20.009Z,22.77
2024-05-09T07:45:53.949Z,24.17
2024-05-09T07:53:00.871Z,22.00
2024-05-09T07:53:50.782Z,21.23
2024-05-09T07:56:24.350Z,21.17
2024-05-09T07:58:52.987Z,23.77
2024-05-09T08:01:24.705Z,20.97
2024-05-09T08:03:52.071Z,20.47
2024-05-09T08:06:24.521Z,19.70
2024-05-09T08:08:51.837Z,23.60
2024-05-09T08:11:22.066Z,18.43
2024-05-09T08:13:49.128Z,21.17
2024-05-09T08:16:19.270Z,18.27
2024-05-09T08:18:46.543Z,21.60
2024-05-09T08:21:16.440Z,20.93
2024-05-09T08:23:46.182Z,19.63
2024-05-09T08:26:15.908Z,21.33
2024-05-09T08:28:45.662Z,21.93
2024-05-09T08:31:15.818Z,20.70
2024-05-09T08:33:51.285Z,20.10
2024-05-09T08:36:18.435Z,21.90
2024-05-09T08:38:50.854Z,23.97
2024-05-09T08:41:18.096Z,21.17
2024-05-09T08:43:47.820Z,20.53
2024-05-09T08:46:15.670Z,20.50
2024-05-09T08:48:48.031Z,18.47
2024-05-09T08:51:15.473Z,20.47
2024-05-09T08:53:45.234Z,19.17
2024-05-09T08:56:16.647Z,19.67
2024-05-09T08:58:48.290Z,19.47
2024-05-09T09:01:17.952Z,18.07
2024-05-09T09:03:48.690Z,19.47
2024-05-09T09:06:19.913Z,21.73
2024-05-09T09:08:51.626Z,18.60
2024-05-09T09:11:21.380Z,20.77
2024-05-09T09:13:51.552Z,17.83
2024-05-09T09:16:18.985Z,18.27
2024-05-09T09:18:50.042Z,16.97
2024-05-09T09:21:18.100Z,18.23
2024-05-09T09:23:48.108Z,16.53
2024-05-09T09:26:16.922Z,16.53
2024-05-09T09:28:50.113Z,17.57
2024-05-09T09:31:18.851Z,18.90
2024-05-09T09:33:49.029Z,18.80
2024-05-09T09:36:18.536Z,18.30
2024-05-09T09:38:52.598Z,18.97
2024-05-09T09:41:24.766Z,18.90
2024-05-09T09:43:59.848Z,17.90
2024-05-09T09:46:29.274Z,17.17
2024-05-09T09:48:59.487Z,17.90
2024-05-09T09:51:27.034Z,18.47
2024-05-09T09:53:58.679Z,16.63
2024-05-09T09:56:30.474Z,17.90
2024-05-09T09:59:05.758Z,20.07
2024-05-09T10:01:34.752Z,18.83
2024-05-09T10:04:06.090Z,18.40
2024-05-09T10:06:36.079Z,18.90
2024-05-09T10:09:06.338Z,18.30
2024-05-09T10:11:39.798Z,18.13
2024-05-09T10:14:23.487Z,15.87
2024-05-09T10:16:50.636Z,21.43
2024-05-09T10:19:28.240Z,15.10
2024-05-09T10:22:03.198Z,14.57
2024-05-09T10:24:49.337Z,13.50
2024-05-09T10:27:16.882Z,13.98
2024-05-09T10:29:59.114Z,19.42
2024-05-09T10:32:28.749Z,20.83
2024-05-09T10:35:09.475Z,18.80
2024-05-09T10:37:36.554Z,20.63
2024-05-09T10:40:14.093Z,21.88
2024-05-09T10:42:47.017Z,24.23
2024-05-09T10:45:21.486Z,20.70
2024-05-09T10:47:48.758Z,20.30
2024-05-09T10:50:25.515Z,20.05
2024-05-09T10:52:56.018Z,20.38
2024-05-09T10:55:25.796Z,20.85
2024-05-09T10:57:53.160Z,18.83
2024-05-09T11:00:30.694Z,20.20
2024-05-09T11:03:03.307Z,19.23
2024-05-09T11:05:34.106Z,18.65
2024-05-09T11:08:01.397Z,22.40
2024-05-09T11:10:34.097Z,21.48
2024-05-09T11:13:02.069Z,19.42
2024-05-09T11:15:43.436Z,23.50
2024-05-09T11:18:25.950Z,17.77
2024-05-09T11:20:58.192Z,20.98
2024-05-09T11:23:27.511Z,21.30
2024-05-09T11:25:58.226Z,20.80
2024-05-09T11:28:29.156Z,21.17
2024-05-09T11:31:11.272Z,19.38
2024-05-09T11:33:39.764Z,19.75
2024-05-09T11:36:12.922Z,18.63
2024-05-09T11:38:40.547Z,19.20
2024-05-09T11:41:13.323Z,20.67
2024-05-09T11:43:40.339Z,21.80
2024-05-09T11:46:12.988Z,19.40
2024-05-09T11:48:40.711Z,22.08
2024-05-09T11:51:10.888Z,22.27
2024-05-09T11:53:38.185Z,20.45
2024-05-09T11:56:08.545Z,21.55
2024-05-09T11:58:37.086Z,22.80
2024-05-09T12:01:07.119Z,22.05
2024-05-09T12:03:38.129Z,19.50
2024-05-09T12:06:08.458Z,21.17
2024-05-09T12:08:35.644Z,23.42
2024-05-09T12:11:05.470Z,23.27
2024-05-09T12:13:32.757Z,22.35
2024-05-09T12:16:02.654Z,25.90
2024-05-09T12:18:30.150Z,23.90
2024-05-09T12:21:02.749Z,22.92
2024-05-09T12:23:29.883Z,27.27
2024-05-09T12:25:59.636Z,24.60
2024-05-09T12:28:26.987Z,26.30
2024-05-09T12:30:56.781Z,26.67
2024-05-09T12:33:24.072Z,24.55
2024-05-09T12:35:53.987Z,28.42
2024-05-09T12:38:23.731Z,24.77
2024-05-09T12:40:53.656Z,24.42
2024-05-09T12:43:20.889Z,26.20
2024-05-09T12:45:50.745Z,27.02
2024-05-09T12:48:18.110Z,26.35
2024-05-09T12:50:48.310Z,26.58
2024-05-09T12:53:15.349Z,29.20
2024-05-09T12:55:53.861Z,25.00
2024-05-09T12:58:24.790Z,26.15
2024-05-09T13:00:55.100Z,24.08
2024-05-09T13:03:22.445Z,24.80
2024-05-09T13:05:52.636Z,28.17
2024-05-09T13:08:20.466Z,25.95
2024-05-09T13:10:53.115Z,26.20
2024-05-09T13:13:20.499Z,26.73
2024-05-09T13:15:50.343Z,27.90
2024-05-09T13:18:17.513Z,25.38
2024-05-09T13:20:47.487Z,26.05
2024-05-09T13:23:14.595Z,24.63
2024-05-09T13:25:44.235Z,26.33
2024-05-09T13:28:14.164Z,25.48
2024-05-09T13:30:44.283Z,24.02
2024-05-09T13:33:14.311Z,22.70
2024-05-09T13:35:49.111Z,21.92
2024-05-09T13:38:19.082Z,24.00
2024-05-09T13:40:50.235Z,22.23
2024-05-09T13:43:22.199Z,22.35
2024-05-09T13:45:52.356Z,22.88
2024-05-09T13:48:19.904Z,20.08
2024-05-09T13:50:49.951Z,20.10
2024-05-09T13:53:19.721Z,20.85
2024-05-09T13:55:49.969Z,19.10
2024-05-09T13:58:23.635Z,20.58
2024-05-09T14:00:51.002Z,19.75
2024-05-09T14:03:21.537Z,21.90
2024-05-09T14:05:50.904Z,19.58
2024-05-09T14:08:22.660Z,21.08
2024-05-09T14:10:50.753Z,17.80
2024-05-09T14:13:23.439Z,19.08
2024-05-09T14:15:50.802Z,16.17
2024-05-09T14:18:21.128Z,19.35
2024-05-09T14:20:48.459Z,18.80
2024-05-09T14:23:25.636Z,21.42
2024-05-09T14:25:53.515Z,19.23
2024-05-09T14:28:27.201Z,17.85
2024-05-09T14:30:56.708Z,20.90
2024-05-09T14:33:27.158Z,19.83
2024-05-09T14:36:12.242Z,17.63
2024-05-09T14:38:42.123Z,18.83
2024-05-09T14:41:11.992Z,19.70
2024-05-09T14:43:44.338Z,13.75
2024-05-09T14:46:11.490Z,14.57
2024-05-09T14:48:41.532Z,17.27
2024-05-09T14:51:08.640Z,18.98
2024-05-09T14:53:38.284Z,17.90
2024-05-09T14:56:06.259Z,16.38
2024-05-09T14:58:36.063Z,16.20
2024-05-09T15:01:06.492Z,14.30
2024-05-09T15:03:36.470Z,13.05
2024-05-09T15:06:04.861Z,12.98
2024-05-09T15:08:34.767Z,14.25
2024-05-09T15:11:02.197Z,10.25
2024-05-09T15:13:32.089Z,13.27
2024-05-09T15:15:59.482Z,11.63
2024-05-09T15:18:32.599Z,11.68
2024-05-09T15:21:00.046Z,10.23
2024-05-09T15:23:29.881Z,14.55
2024-05-09T15:25:57.054Z,14.88
2024-05-09T15:28:26.861Z,14.82
2024-05-09T15:30:54.036Z,17.42
2024-05-09T15:33:23.937Z,16.52
2024-05-09T15:35:54.114Z,17.40
2024-05-09T15:38:23.952Z,14.65
2024-05-09T15:40:51.317Z,18.17
2024-05-09T15:43:21.504Z,19.17
2024-05-09T15:45:48.716Z,18.15
2024-05-09T15:48:18.738Z,16.30
2024-05-09T15:50:46.063Z,15.38
2024-05-09T15:53:20.045Z,16.15
2024-05-09T15:55:49.217Z,14.15
2024-05-09T15:58:19.105Z,17.13
2024-05-09T16:00:48.728Z,18.85
2024-05-09T16:03:21.316Z,15.00
2024-05-09T16:05:49.097Z,16.95
2024-05-09T16:08:24.515Z,17.85
2024-05-09T16:10:51.801Z,15.20
2024-05-09T16:13:22.978Z,15.55
2024-05-09T16:15:53.274Z,17.38
2024-05-09T16:18:20.706Z,14.27
2024-05-09T16:20:50.980Z,13.98
2024-05-09T16:23:21.124Z,14.25
2024-05-09T16:25:52.595Z,13.95
2024-05-09T16:28:22.913Z,15.40
2024-05-09T16:30:54.402Z,13.65
2024-05-09T16:33:23.962Z,14.48
2024-05-09T16:35:54.041Z,12.30
2024-05-09T16:38:23.819Z,16.23
2024-05-09T16:40:53.724Z,13.77
2024-05-09T16:43:21.165Z,14.82
2024-05-09T16:45:51.082Z,18.10
2024-05-09T16:48:18.503Z,12.40
2024-05-09T16:50:48.333Z,11.23
2024-05-09T16:53:15.545Z,15.05
2024-05-09T16:55:47.882Z,15.55
2024-05-09T16:58:15.280Z,13.45
2024-05-09T17:00:45.158Z,13.30
2024-05-09T17:03:14.821Z,11.80
2024-05-09T17:05:47.138Z,11.35
2024-05-09T17:08:15.781Z,12.80
2024-05-09T17:10:49.806Z,11.95
2024-05-09T17:13:20.442Z,10.77
2024-05-09T17:15:51.022Z,10.93
2024-05-09T17:18:23.477Z,11.68
2024-05-09T17:20:54.716Z,11.02
2024-05-09T17:23:22.164Z,11.40
2024-05-09T17:25:54.591Z,11.55
2024-05-09T17:28:21.766Z,10.73
2024-05-09T17:30:51.535Z,13.02
2024-05-09T17:33:18.943Z,13.52
2024-05-09T17:35:50.798Z,13.45
2024-05-09T17:38:18.554Z,10.05
2024-05-09T17:40:48.704Z,11.40
2024-05-09T17:43:18.565Z,13.00
2024-05-09T17:45:48.561Z,11.52
2024-05-09T17:48:17.283Z,12.90
2024-05-09T17:50:47.297Z,11.00
2024-05-09T17:53:14.326Z,11.57
2024-05-09T17:55:44.113Z,13.95
2024-05-09T17:58:13.001Z,12.65
2024-05-09T18:00:45.540Z,11.55
2024-05-09T18:03:13.665Z,12.73
2024-05-09T18:05:45.197Z,13.40
2024-05-09T18:08:12.980Z,12.15
2024-05-09T18:10:43.331Z,12.25
2024-05-09T18:13:11.612Z,11.85
2024-05-09T18:15:42.104Z,12.38
2024-05-09T18:18:12.931Z,10.75
2024-05-09T18:20:45.594Z,11.75
2024-05-09T18:23:15.163Z,12.88
2024-05-09T18:25:46.867Z,11.60
2024-05-09T18:28:14.833Z,10.52
2024-05-09T18:30:45.215Z,12.00
2024-05-09T18:33:15.688Z,11.00
2024-05-09T18:35:46.258Z,10.55
2024-05-09T18:38:13.783Z,12.48
2024-05-09T18:40:45.940Z,11.07
2024-05-09T18:43:15.284Z,15.43
2024-05-09T18:45:49.130Z,11.85
2024-05-09T18:48:19.226Z,13.65
2024-05-09T18:50:58.578Z,12.85
2024-05-09T18:53:25.729Z,12.52
2024-05-09T18:55:55.757Z,11.70
2024-05-09T18:58:22.866Z,11.95
2024-05-09T19:00:54.997Z,13.13
2024-05-09T19:03:25.959Z,13.63
2024-05-09T19:05:56.240Z,12.88
2024-05-09T19:08:23.417Z,11.35
2024-05-09T19:10:53.359Z,11.45
2024-05-09T19:13:20.805Z,12.60
2024-05-09T19:15:51.375Z,10.68
2024-05-09T19:18:18.728Z,13.48
2024-05-09T19:20:51.357Z,14.53
2024-05-09T19:23:18.487Z,15.63
2024-05-09T19:25:48.380Z,15.32
2024-05-09T19:28:15.449Z,15.23
2024-05-09T19:30:45.416Z,14.50
2024-05-09T19:33:13.733Z,14.83
2024-05-09T19:35:44.396Z,13.30
2024-05-09T19:38:14.361Z,13.55
2024-05-09T19:40:44.187Z,13.77
2024-05-09T19:43:11.422Z,14.47
2024-05-09T19:45:41.306Z,14.80
2024-05-09T19:48:08.871Z,12.93
2024-05-09T19:50:43.218Z,15.50
2024-05-09T19:53:15.221Z,16.33
2024-05-09T19:55:45.437Z,14.63
2024-05-09T19:58:13.185Z,17.23
2024-05-09T20:00:44.532Z,18.57
2024-05-09T20:03:13.657Z,16.77
2024-05-09T20:05:45.367Z,15.87
2024-05-09T20:08:15.786Z,17.47
2024-05-09T20:10:45.802Z,17.10
2024-05-09T20:13:13.876Z,16.57
2024-05-09T20:15:43.750Z,16.03
2024-05-09T20:18:11.339Z,15.53
2024-05-09T20:20:43.904Z,18.33
2024-05-09T20:23:15.379Z,17.87
2024-05-09T20:25:45.671Z,20.03
2024-05-09T20:28:13.000Z,20.80
2024-05-09T20:30:42.882Z,17.73
2024-05-09T20:33:10.720Z,18.77
2024-05-09T20:35:40.743Z,19.03
2024-05-09T20:38:08.058Z,19.20
2024-05-09T20:40:40.803Z,16.53
2024-05-09T20:43:08.688Z,16.80
2024-05-09T20:45:39.244Z,15.10
2024-05-09T20:48:08.565Z,15.17
2024-05-09T20:50:41.460Z,18.50
2024-05-09T20:53:10.988Z,16.07
2024-05-09T20:55:44.616Z,14.37
2024-05-09T20:58:12.433Z,16.13
2024-05-09T21:00:45.008Z,15.90
2024-05-09T21:03:15.418Z,16.67
2024-05-09T21:05:46.782Z,19.70
2024-05-09T21:08:14.380Z,20.83
2024-05-09T21:10:47.122Z,23.30
2024-05-09T21:13:17.141Z,16.80
2024-05-09T21:15:44.328Z,17.73
2024-05-09T21:18:14.051Z,19.03
2024-05-09T21:20:41.264Z,19.53
2024-05-09T21:23:11.286Z,17.30
2024-05-09T21:25:38.367Z,18.93
2024-05-09T21:28:10.986Z,17.73
2024-05-09T21:30:42.158Z,17.90
2024-05-09T21:33:14.789Z,18.47
2024-05-09T21:35:42.537Z,20.03
2024-05-09T21:38:13.913Z,18.07
2024-05-09T21:40:41.384Z,17.47
2024-05-09T21:43:14.433Z,16.77
2024-05-09T21:45:41.818Z,18.33
2024-05-09T21:48:11.845Z,19.43
2024-05-09T21:50:41.560Z,22.17
2024-05-09T21:53:13.649Z,25.97
2024-05-09T21:55:41.371Z,22.83
2024-05-09T21:58:15.117Z,21.10
2024-05-09T22:00:45.669Z,19.00
2024-05-09T22:03:16.849Z,19.03
2024-05-09T22:05:45.111Z,17.87
2024-05-09T22:08:15.332Z,19.77
2024-05-09T22:10:42.765Z,19.10
2024-05-09T22:13:16.830Z,19.93
2024-05-09T22:15:44.122Z,15.93
2024-05-09T22:18:14.182Z,19.27
2024-05-09T22:20:45.475Z,20.23
2024-05-09T22:23:16.604Z,19.47
2024-05-09T22:25:43.718Z,22.47
2024-05-09T22:28:17.440Z,19.50
2024-05-09T22:30:46.502Z,18.47
2024-05-09T22:33:17.740Z,19.40
2024-05-09T22:35:45.475Z,21.13
2024-05-09T22:38:15.196Z,22.33
2024-05-09T22:40:47.720Z,21.63
2024-05-09T22:43:24.640Z,21.63
2024-05-09T22:45:52.716Z,25.63
2024-05-09T22:48:23.807Z,23.93
2024-05-09T22:50:51.777Z,30.23
2024-05-09T22:53:21.470Z,22.77
2024-05-09T22:55:48.594Z,23.83
2024-05-09T22:58:18.526Z,23.63
2024-05-09T23:00:48.397Z,22.33
2024-05-09T23:03:21.541Z,21.70
2024-05-09T23:05:48.904Z,23.40
2024-05-09T23:08:18.672Z,21.97
2024-05-09T23:10:46.041Z,21.87
2024-05-09T23:13:16.248Z,24.90
2024-05-09T23:15:43.443Z,22.50
2024-05-09T23:18:15.936Z,21.10
2024-05-09T23:20:42.965Z,22.80
2024-05-09T23:23:13.033Z,21.63
2024-05-09T23:25:41.755Z,22.67
2024-05-09T23:28:11.956Z,22.23
2024-05-09T23:30:42.516Z,24.30
2024-05-09T23:33:14.103Z,23.40
2024-05-09T23:35:45.094Z,20.77
2024-05-09T23:38:12.335Z,25.50
2024-05-09T23:40:42.990Z,20.50
2024-05-09T23:43:11.749Z,23.07
2024-05-09T23:45:42.581Z,23.10
2024-05-09T23:48:12.866Z,21.53
2024-05-09T23:50:42.642Z,24.20
2024-05-09T23:53:10.765Z,23.23
2024-05-09T23:55:41.193Z,24.40
2024-05-09T23:58:08.533Z,21.73
